Time;durP1;ratioP1;P1;durP2;ratioP2;P2;SDS_P1;SDS_P2;PMS_P1;PMS_P2;Temp;Humidity;BMP_temperature;BMP_pressure;BME280_temperature;BME280_humidity;BME280_pressure;Samples;Min_cycle;Max_cycle;Signal;HPM_P1;HPM_P2
2021/09/30 00:00:16;;;;;;;1.10;0.50;;;12.30;99.90;;;;;;5057300;28;20229;-80
2021/09/30 00:02:42;;;;;;;1.50;0.33;;;12.20;99.90;;;;;;5058020;28;20173;-78
2021/09/30 00:05:09;;;;;;;2.60;0.60;;;12.20;99.90;;;;;;5058952;28;20173;-79
2021/09/30 00:07:35;;;;;;;1.03;0.40;;;12.20;99.90;;;;;;5058730;28;20177;-79
2021/09/30 00:10:01;;;;;;;0.90;0.30;;;12.20;99.90;;;;;;5058580;28;20687;-79
2021/09/30 00:12:30;;;;;;;0.83;0.40;;;12.10;99.90;;;;;;5058339;28;20177;-79
2021/09/30 00:15:09;;;;;;;2.70;0.60;;;12.00;99.90;;;;;;5058197;28;20176;-79
2021/09/30 00:52:02;;;;;;;2.17;0.67;;;11.10;99.90;;;;;;5058123;28;20208;-79
2021/09/30 01:45:57;;;;;;;1.50;0.50;;;11.00;99.90;;;;;;5060938;28;20219;-79
2021/09/30 02:23:55;;;;;;;2.13;0.60;;;11.40;99.90;;;;;;5039058;28;20248;-78
2021/09/30 02:58:54;;;;;;;1.90;0.50;;;10.60;99.90;;;;;;5019925;28;20195;-78
2021/09/30 03:01:24;;;;;;;1.03;0.50;;;10.60;99.90;;;;;;5018896;28;20282;-77
2021/09/30 03:03:54;;;;;;;1.40;0.70;;;10.50;99.90;;;;;;5019700;28;20203;-78
2021/09/30 03:06:21;;;;;;;2.13;0.63;;;10.50;99.90;;;;;;5017033;28;20174;-78
2021/09/30 03:08:54;;;;;;;0.87;0.50;;;10.60;99.90;;;;;;5018059;28;20188;-78
2021/09/30 03:11:21;;;;;;;2.13;0.50;;;10.50;99.90;;;;;;5019726;28;20286;-78
2021/09/30 03:13:50;;;;;;;2.00;0.60;;;10.50;99.90;;;;;;5020889;28;20193;-78
2021/09/30 03:23:42;;;;;;;1.13;0.70;;;10.50;99.90;;;;;;5019853;28;20190;-78
2021/09/30 03:26:08;;;;;;;2.97;0.93;;;10.40;99.90;;;;;;5019024;28;20181;-77
2021/09/30 03:28:35;;;;;;;0.70;0.50;;;10.50;99.90;;;;;;5019269;28;20717;-78
2021/09/30 03:31:03;;;;;;;2.63;0.63;;;10.50;99.90;;;;;;5018134;28;20214;-77
2021/09/30 03:33:29;;;;;;;2.60;0.73;;;10.50;99.90;;;;;;5019649;28;20182;-77
2021/09/30 03:35:55;;;;;;;1.20;0.83;;;10.40;99.90;;;;;;5022399;28;20183;-77
2021/09/30 03:38:22;;;;;;;1.13;0.67;;;10.40;99.90;;;;;;5022926;28;20622;-77
2021/09/30 03:40:48;;;;;;;1.60;0.70;;;10.40;99.90;;;;;;5026724;28;20235;-77
2021/09/30 03:43:14;;;;;;;1.23;0.50;;;10.30;99.90;;;;;;5018860;28;20177;-77
2021/09/30 03:45:40;;;;;;;1.53;0.63;;;10.30;99.90;;;;;;5036240;28;20187;-79
2021/09/30 03:48:07;;;;;;;3.10;1.07;;;10.40;99.90;;;;;;5024718;28;20207;-78
2021/09/30 03:50:47;;;;;;;2.60;0.80;;;10.40;99.90;;;;;;5035874;28;20207;-78
2021/09/30 03:53:29;;;;;;;1.77;0.60;;;10.40;99.90;;;;;;5035757;28;20187;-78
2021/09/30 04:01:20;;;;;;;1.33;0.70;;;10.40;99.90;;;;;;5018406;28;20256;-77
2021/09/30 04:03:45;;;;;;;0.90;0.57;;;10.40;99.90;;;;;;5016144;28;20181;-77
2021/09/30 04:06:12;;;;;;;5.63;0.70;;;10.30;99.90;;;;;;5006708;28;20254;-78
2021/09/30 04:08:38;;;;;;;1.67;0.90;;;10.30;99.90;;;;;;5023126;28;20177;-77
2021/09/30 04:11:04;;;;;;;1.23;0.70;;;10.30;99.90;;;;;;5035119;28;20219;-77
2021/09/30 04:13:29;;;;;;;2.07;0.53;;;10.30;99.90;;;;;;5034996;28;20179;-78
2021/09/30 04:15:55;;;;;;;0.93;0.63;;;10.20;99.90;;;;;;5035190;28;20209;-77
2021/09/30 04:18:21;;;;;;;2.63;0.73;;;10.30;99.90;;;;;;5036659;28;20618;-78
2021/09/30 04:20:46;;;;;;;1.93;0.67;;;10.30;99.90;;;;;;5027425;28;20213;-78
2021/09/30 04:23:12;;;;;;;0.77;0.67;;;10.20;99.90;;;;;;5034729;28;20592;-78
2021/09/30 04:25:38;;;;;;;1.00;0.60;;;10.10;99.90;;;;;;5034291;28;20175;-78
2021/09/30 04:28:04;;;;;;;1.07;0.60;;;10.10;99.90;;;;;;5039951;28;20213;-77
2021/09/30 04:30:30;;;;;;;1.50;0.70;;;10.10;99.90;;;;;;5034882;28;20202;-78
2021/09/30 04:32:56;;;;;;;1.23;0.80;;;10.00;99.90;;;;;;5031353;28;20661;-78
2021/09/30 04:35:22;;;;;;;3.27;0.63;;;10.00;99.90;;;;;;5035623;28;20175;-78
2021/09/30 04:37:48;;;;;;;3.57;1.07;;;10.00;99.90;;;;;;5035371;28;20188;-78
2021/09/30 04:40:14;;;;;;;2.10;0.73;;;9.90;99.90;;;;;;5033578;28;20200;-76
2021/09/30 04:42:40;;;;;;;2.33;0.77;;;10.00;99.90;;;;;;5017636;28;20185;-77
2021/09/30 04:45:06;;;;;;;3.20;0.80;;;10.00;99.90;;;;;;5024715;28;20174;-78
2021/09/30 04:47:32;;;;;;;1.23;0.77;;;9.90;99.90;;;;;;5035041;28;20183;-78
2021/09/30 04:49:57;;;;;;;1.50;0.50;;;9.80;99.90;;;;;;5035154;28;20568;-78
2021/09/30 04:52:24;;;;;;;2.57;0.73;;;9.70;99.90;;;;;;5022463;28;20257;-77
2021/09/30 04:54:50;;;;;;;1.87;0.77;;;9.70;99.90;;;;;;5035212;28;20210;-77
2021/09/30 04:57:16;;;;;;;1.93;0.90;;;9.70;99.90;;;;;;5029690;28;20596;-78
2021/09/30 04:59:42;;;;;;;2.67;0.80;;;9.70;99.90;;;;;;5019146;28;20214;-78
2021/09/30 05:02:07;;;;;;;1.90;0.50;;;9.60;99.90;;;;;;5018190;28;20191;-78
2021/09/30 05:04:33;;;;;;;1.77;0.80;;;9.70;99.90;;;;;;5031707;28;20234;-78
2021/09/30 05:06:59;;;;;;;1.00;0.77;;;9.70;99.90;;;;;;5013455;28;20206;-78
2021/09/30 05:09:26;;;;;;;1.20;0.90;;;9.50;99.90;;;;;;5032003;28;20179;-78
2021/09/30 05:11:55;;;;;;;2.10;0.70;;;9.60;99.90;;;;;;5016220;28;20196;-77
2021/09/30 05:14:21;;;;;;;1.27;0.63;;;9.50;99.90;;;;;;5005830;28;20266;-77
2021/09/30 05:16:48;;;;;;;1.17;0.60;;;9.50;99.90;;;;;;5016331;28;20179;-77
2021/09/30 05:19:14;;;;;;;2.83;1.00;;;9.60;99.90;;;;;;5016944;28;20267;-78
2021/09/30 05:21:39;;;;;;;2.33;0.90;;;9.50;99.90;;;;;;5017175;28;20679;-77
2021/09/30 05:24:05;;;;;;;2.03;0.80;;;9.50;99.90;;;;;;5013774;28;20286;-77
2021/09/30 05:26:31;;;;;;;3.03;0.80;;;9.60;99.90;;;;;;5004310;28;20228;-77
2021/09/30 05:28:57;;;;;;;1.67;1.13;;;9.60;99.90;;;;;;5016202;28;20231;-77
2021/09/30 05:31:23;;;;;;;2.17;1.00;;;9.50;99.90;;;;;;5016999;28;20200;-77
2021/09/30 05:33:49;;;;;;;2.50;1.07;;;9.40;99.90;;;;;;5020138;28;20179;-77
2021/09/30 05:36:14;;;;;;;1.43;1.00;;;9.30;99.90;;;;;;5033469;28;20182;-76
2021/09/30 05:38:40;;;;;;;0.97;0.80;;;9.30;99.90;;;;;;5016888;28;20183;-75
2021/09/30 05:41:06;;;;;;;2.60;0.90;;;9.30;99.90;;;;;;5020593;28;20211;-77
2021/09/30 05:43:37;;;;;;;2.10;0.93;;;9.20;99.90;;;;;;5034405;28;20646;-78
2021/09/30 05:46:04;;;;;;;2.37;0.80;;;9.20;99.90;;;;;;5034318;28;20175;-77
2021/09/30 05:48:29;;;;;;;3.73;0.70;;;9.30;99.90;;;;;;5031373;28;20257;-77
2021/09/30 05:50:56;;;;;;;1.77;0.80;;;9.30;99.90;;;;;;5023322;28;20263;-77
2021/09/30 05:53:22;;;;;;;3.20;1.00;;;9.30;99.90;;;;;;5027540;28;20172;-77
2021/09/30 05:55:48;;;;;;;2.70;0.80;;;9.40;99.90;;;;;;5023301;28;20185;-77
2021/09/30 05:58:14;;;;;;;2.00;0.87;;;9.30;99.90;;;;;;5034130;28;20256;-77
2021/09/30 06:00:58;;;;;;;5.47;0.90;;;9.30;99.90;;;;;;5033595;28;20228;-77
2021/09/30 06:14:06;;;;;;;2.97;0.90;;;9.40;99.90;;;;;;5020286;28;20592;-77
2021/09/30 06:16:35;;;;;;;1.50;0.90;;;9.40;99.90;;;;;;5034329;28;20176;-77
2021/09/30 06:19:02;;;;;;;4.03;0.90;;;9.20;99.90;;;;;;5033942;28;20170;-77
2021/09/30 06:21:28;;;;;;;1.90;1.00;;;9.20;99.90;;;;;;5019245;28;20693;-77
2021/09/30 06:23:54;;;;;;;3.83;1.53;;;9.20;99.90;;;;;;5033916;28;20660;-77
2021/09/30 06:26:20;;;;;;;2.10;1.10;;;9.20;99.90;;;;;;5028228;28;20179;-76
2021/09/30 06:28:46;;;;;;;2.00;1.00;;;9.30;99.90;;;;;;5016034;28;20542;-77
2021/09/30 06:31:11;;;;;;;1.47;0.70;;;9.20;99.90;;;;;;5021957;28;20193;-77
2021/09/30 06:33:37;;;;;;;1.70;0.83;;;9.20;99.90;;;;;;5024367;28;20187;-77
2021/09/30 06:36:03;;;;;;;3.33;1.00;;;9.30;99.90;;;;;;5037496;28;20187;-77
2021/09/30 06:38:29;;;;;;;4.60;0.80;;;9.30;99.90;;;;;;5027740;28;20208;-77
2021/09/30 06:40:54;;;;;;;1.60;0.90;;;9.40;99.90;;;;;;5026093;28;20204;-77
2021/09/30 06:43:20;;;;;;;3.77;1.10;;;9.40;99.90;;;;;;5024292;28;20171;-77
2021/09/30 06:45:46;;;;;;;2.50;1.00;;;9.50;99.90;;;;;;5028523;28;20281;-78
2021/09/30 06:48:11;;;;;;;2.13;0.97;;;9.60;99.90;;;;;;5035168;28;20196;-77
2021/09/30 06:50:37;;;;;;;1.27;0.77;;;9.70;99.90;;;;;;5023987;28;20216;-77
2021/09/30 06:53:05;;;;;;;2.20;0.80;;;9.70;99.90;;;;;;5020540;28;20565;-77
2021/09/30 06:55:31;;;;;;;4.60;1.00;;;9.70;99.90;;;;;;5028096;28;20747;-77
2021/09/30 06:57:57;;;;;;;2.23;0.97;;;9.70;99.90;;;;;;5038134;28;20658;-77
2021/09/30 07:00:23;;;;;;;1.80;0.87;;;9.70;99.90;;;;;;5033420;28;20261;-78
2021/09/30 07:02:48;;;;;;;3.27;1.20;;;9.70;99.90;;;;;;5023679;28;20669;-77
2021/09/30 07:05:15;;;;;;;5.87;1.00;;;9.80;99.90;;;;;;5023371;28;20248;-78
2021/09/30 07:07:41;;;;;;;1.43;0.80;;;9.90;99.90;;;;;;5010415;28;20177;-77
2021/09/30 07:10:11;;;;;;;4.83;1.40;;;9.90;99.90;;;;;;5021508;28;20207;-78
2021/09/30 07:12:38;;;;;;;2.93;1.20;;;10.00;99.90;;;;;;5022693;28;20194;-77
2021/09/30 07:15:05;;;;;;;2.80;1.07;;;9.90;99.90;;;;;;5015934;28;20268;-76
2021/09/30 07:17:31;;;;;;;1.70;0.90;;;9.80;99.90;;;;;;5002714;28;20242;-77
2021/09/30 07:19:58;;;;;;;1.67;1.30;;;9.90;99.90;;;;;;5014963;28;20216;-78
2021/09/30 07:22:24;;;;;;;2.73;0.60;;;10.00;99.90;;;;;;5019095;28;20700;-78
2021/09/30 07:24:50;;;;;;;2.83;0.90;;;9.90;99.90;;;;;;5027263;28;20258;-77
2021/09/30 07:27:16;;;;;;;2.30;1.00;;;10.10;99.90;;;;;;5010555;28;20216;-77
2021/09/30 07:29:42;;;;;;;1.93;0.90;;;10.20;99.90;;;;;;5012778;28;20191;-78
2021/09/30 07:32:07;;;;;;;1.10;0.90;;;10.40;99.90;;;;;;5007448;28;20176;-77
2021/09/30 07:34:33;;;;;;;4.90;1.17;;;10.50;99.90;;;;;;5010468;28;20181;-78
2021/09/30 07:37:00;;;;;;;2.47;0.70;;;10.50;99.90;;;;;;5008907;28;20208;-78
2021/09/30 07:39:26;;;;;;;5.23;1.33;;;10.50;99.90;;;;;;5015453;28;20191;-76
2021/09/30 07:41:52;;;;;;;2.57;0.73;;;10.70;99.90;;;;;;5000496;28;20204;-78
2021/09/30 07:44:18;;;;;;;2.07;0.73;;;10.80;99.90;;;;;;5014370;28;20193;-77
2021/09/30 07:46:45;;;;;;;2.17;1.20;;;10.80;99.90;;;;;;5011720;28;20181;-77
2021/09/30 07:49:12;;;;;;;2.07;1.00;;;10.80;99.90;;;;;;5005307;28;20204;-76
2021/09/30 07:51:38;;;;;;;3.00;1.30;;;10.90;99.90;;;;;;5022087;28;20242;-77
2021/09/30 07:54:06;;;;;;;1.50;1.20;;;11.00;99.90;;;;;;5005877;28;20547;-78
2021/09/30 07:56:32;;;;;;;2.93;0.80;;;11.00;99.90;;;;;;5026605;28;20639;-77
2021/09/30 07:58:58;;;;;;;2.13;0.77;;;11.10;99.90;;;;;;5018962;28;20185;-78
2021/09/30 08:01:24;;;;;;;0.90;0.50;;;11.10;99.90;;;;;;5041828;23;20376;-79
2021/09/30 08:03:50;;;;;;;1.97;0.60;;;11.20;99.90;;;;;;5055839;28;20228;-79
2021/09/30 08:06:16;;;;;;;3.03;0.70;;;11.20;99.90;;;;;;5056488;28;20185;-79
2021/09/30 08:08:42;;;;;;;1.10;0.60;;;11.30;99.90;;;;;;5039684;28;20519;-79
2021/09/30 08:11:08;;;;;;;2.13;0.80;;;11.40;99.90;;;;;;5050253;28;20274;-80
2021/09/30 08:13:34;;;;;;;5.40;1.27;;;11.40;99.90;;;;;;5020489;28;20228;-79
2021/09/30 08:16:00;;;;;;;4.17;0.70;;;11.40;99.90;;;;;;5020660;28;20180;-80
2021/09/30 08:18:26;;;;;;;8.23;0.90;;;11.50;99.90;;;;;;5037573;28;20186;-80
2021/09/30 08:20:53;;;;;;;1.37;0.53;;;11.50;99.90;;;;;;5037977;28;20219;-80
2021/09/30 08:23:20;;;;;;;2.40;0.50;;;11.60;99.90;;;;;;5037722;28;20206;-79
2021/09/30 08:25:47;;;;;;;2.37;0.70;;;11.50;99.90;;;;;;5018187;28;20281;-80
2021/09/30 08:28:14;;;;;;;3.43;0.60;;;11.60;99.90;;;;;;5019637;28;20530;-79
2021/09/30 08:30:40;;;;;;;4.37;0.60;;;11.60;99.90;;;;;;5037388;28;20270;-80
2021/09/30 08:33:08;;;;;;;1.90;0.60;;;11.60;99.90;;;;;;5038076;28;20263;-79
2021/09/30 08:35:35;;;;;;;0.63;0.30;;;11.60;99.90;;;;;;5037125;28;20227;-80
2021/09/30 08:38:00;;;;;;;2.53;0.60;;;11.70;99.90;;;;;;5020023;28;20213;-79
2021/09/30 08:40:26;;;;;;;3.53;0.80;;;11.70;99.90;;;;;;5036622;28;20637;-79
2021/09/30 08:42:52;;;;;;;2.50;0.70;;;11.80;99.90;;;;;;5036741;28;20189;-79
2021/09/30 08:45:20;;;;;;;1.97;0.50;;;11.80;99.90;;;;;;5020806;28;20203;-79
2021/09/30 08:48:04;;;;;;;2.93;0.47;;;11.90;99.90;;;;;;5020109;28;20188;-79
2021/09/30 08:50:32;;;;;;;3.30;0.60;;;11.90;99.90;;;;;;5038180;28;20219;-79
2021/09/30 08:53:00;;;;;;;1.97;0.67;;;12.00;99.90;;;;;;5037649;28;20264;-79
2021/09/30 08:55:26;;;;;;;3.23;0.80;;;12.00;99.90;;;;;;5037537;28;20213;-79
2021/09/30 08:57:52;;;;;;;1.13;0.60;;;11.90;99.90;;;;;;5036750;28;20189;-80
2021/09/30 09:00:20;;;;;;;1.63;0.40;;;12.00;99.90;;;;;;5035814;28;20252;-79
2021/09/30 09:02:51;;;;;;;2.70;0.60;;;12.10;99.90;;;;;;5020196;28;20195;-78
2021/09/30 09:05:19;;;;;;;2.43;0.77;;;12.20;99.90;;;;;;5036038;28;20180;-80
2021/09/30 09:07:52;;;;;;;1.63;0.70;;;12.30;99.90;;;;;;5036136;28;20219;-79
2021/09/30 09:10:21;;;;;;;2.90;0.97;;;12.50;99.90;;;;;;5035716;28;20228;-81
2021/09/30 09:13:11;;;;;;;2.40;0.93;;;12.60;99.90;;;;;;5036451;28;20190;-79
2021/09/30 09:15:48;;;;;;;6.57;1.00;;;12.70;99.90;;;;;;5034763;28;20177;-79
2021/09/30 09:18:19;;;;;;;1.10;0.50;;;12.70;99.90;;;;;;5018023;28;20209;-79
2021/09/30 09:20:48;;;;;;;2.63;0.80;;;12.70;99.90;;;;;;5033845;28;20204;-79
2021/09/30 09:23:13;;;;;;;1.50;0.70;;;12.70;99.90;;;;;;5017841;28;20665;-79
2021/09/30 09:25:39;;;;;;;3.57;1.00;;;12.70;99.90;;;;;;5035665;28;20200;-79
2021/09/30 09:28:05;;;;;;;4.40;1.90;;;12.80;99.90;;;;;;5035910;28;20182;-80
2021/09/30 09:30:41;;;;;;;3.90;1.57;;;12.90;99.90;;;;;;5035910;28;20586;-79
2021/09/30 09:33:20;;;;;;;3.47;2.13;;;12.90;99.90;;;;;;5036742;28;20202;-80
2021/09/30 09:36:05;;;;;;;6.47;2.70;;;13.00;99.90;;;;;;5015231;28;20185;-79
2021/09/30 09:38:54;;;;;;;4.17;1.50;;;12.90;99.90;;;;;;5033695;28;20671;-80
2021/09/30 09:41:26;;;;;;;5.63;1.43;;;13.10;99.90;;;;;;5035390;28;20565;-79
2021/09/30 09:43:54;;;;;;;3.17;2.17;;;13.10;99.90;;;;;;5018169;28;20189;-80
2021/09/30 09:46:22;;;;;;;4.07;1.83;;;13.00;99.90;;;;;;5016795;28;20171;-80
2021/09/30 09:48:54;;;;;;;3.53;1.37;;;13.10;99.90;;;;;;5017725;28;20184;-80
2021/09/30 09:51:20;;;;;;;3.27;1.70;;;13.20;99.90;;;;;;5037629;28;20197;-80
2021/09/30 09:53:46;;;;;;;3.00;1.30;;;13.50;99.90;;;;;;5037260;28;20498;-80
2021/09/30 09:56:19;;;;;;;2.03;1.20;;;13.60;99.90;;;;;;5018895;28;20178;-79
2021/09/30 09:58:55;;;;;;;2.10;0.67;;;13.60;99.90;;;;;;5036366;28;20186;-80
2021/09/30 10:01:27;;;;;;;1.53;0.70;;;13.80;99.90;;;;;;5035552;28;20343;-79
2021/09/30 10:04:00;;;;;;;2.50;0.57;;;13.70;99.90;;;;;;5040725;28;20178;-79
2021/09/30 10:06:28;;;;;;;3.07;0.70;;;13.70;99.90;;;;;;5039781;28;20211;-81
2021/09/30 10:08:54;;;;;;;4.20;0.93;;;13.60;99.90;;;;;;5021049;28;20206;-79
2021/09/30 10:11:20;;;;;;;0.60;0.40;;;13.80;99.90;;;;;;5040268;28;20206;-80
2021/09/30 10:13:47;;;;;;;1.00;0.60;;;13.80;99.90;;;;;;5041437;28;20187;-80
2021/09/30 10:16:17;;;;;;;2.63;0.83;;;13.90;99.90;;;;;;5039923;28;20217;-80
2021/09/30 10:18:43;;;;;;;1.27;0.63;;;13.80;99.90;;;;;;5040448;28;20196;-79
2021/09/30 10:21:09;;;;;;;3.57;0.97;;;13.90;99.90;;;;;;5039953;28;20217;-80
2021/09/30 10:23:36;;;;;;;1.87;1.03;;;13.90;99.90;;;;;;5021792;28;20171;-80
2021/09/30 10:26:18;;;;;;;4.20;0.97;;;13.80;99.90;;;;;;5037700;28;20580;-80
2021/09/30 10:28:45;;;;;;;2.70;0.80;;;13.80;99.90;;;;;;5038934;28;20208;-80
2021/09/30 10:31:21;;;;;;;2.60;1.07;;;13.70;99.90;;;;;;5039554;28;20229;-80
2021/09/30 10:33:47;;;;;;;2.90;0.80;;;13.90;99.90;;;;;;5020899;28;20596;-80
2021/09/30 10:36:44;;;;;;;3.23;0.93;;;14.00;99.90;;;;;;5037556;28;20187;-80
2021/09/30 10:39:30;;;;;;;3.07;0.50;;;14.10;99.90;;;;;;5018706;28;20774;-80
2021/09/30 10:42:02;;;;;;;2.90;0.93;;;14.10;99.90;;;;;;5034015;28;20190;-80
2021/09/30 10:44:35;;;;;;;2.03;0.77;;;14.10;99.90;;;;;;5036045;28;20205;-81
2021/09/30 10:47:08;;;;;;;2.50;1.00;;;14.00;99.90;;;;;;5021959;28;20549;-80
2021/09/30 10:49:48;;;;;;;1.60;0.90;;;13.90;99.90;;;;;;5038733;28;20189;-80
2021/09/30 10:52:24;;;;;;;1.87;0.80;;;13.90;99.90;;;;;;5036334;28;20190;-80
2021/09/30 10:54:59;;;;;;;2.37;0.70;;;13.80;99.90;;;;;;5039136;28;20383;-80
2021/09/30 10:57:44;;;;;;;1.53;0.77;;;13.80;99.90;;;;;;5021262;28;20235;-81
2021/09/30 11:00:17;;;;;;;2.47;0.90;;;13.90;99.90;;;;;;5035406;28;20330;-80
2021/09/30 11:03:01;;;;;;;4.13;0.60;;;14.00;99.90;;;;;;5022095;28;20198;-84
2021/09/30 11:05:28;;;;;;;1.73;0.80;;;14.10;99.90;;;;;;5036101;28;20174;-83
2021/09/30 11:08:29;;;;;;;86.33;4.60;;;14.20;99.90;;;;;;5023467;28;20309;-83
2021/09/30 11:11:07;;;;;;;5.37;1.53;;;14.70;99.90;;;;;;5039486;28;20205;-81
2021/09/30 11:13:38;;;;;;;4.97;1.23;;;14.80;99.90;;;;;;5039541;28;20174;-81
2021/09/30 11:16:07;;;;;;;1.30;0.67;;;15.00;99.90;;;;;;5038952;28;20530;-82
2021/09/30 11:18:46;;;;;;;3.40;0.97;;;15.10;99.90;;;;;;5039957;28;20541;-81
2021/09/30 11:21:34;;;;;;;2.00;0.53;;;15.20;99.90;;;;;;5040035;28;20237;-81
2021/09/30 11:24:02;;;;;;;1.90;0.80;;;15.40;99.90;;;;;;5034340;28;20681;-81
2021/09/30 11:26:51;;;;;;;3.23;1.10;;;15.60;99.90;;;;;;5022674;28;20181;-82
2021/09/30 11:29:26;;;;;;;0.80;0.40;;;15.50;99.90;;;;;;5026397;28;20561;-80
2021/09/30 11:31:54;;;;;;;1.57;0.53;;;15.80;99.90;;;;;;5040835;28;20193;-81
2021/09/30 11:34:24;;;;;;;2.73;0.70;;;15.90;99.90;;;;;;5039672;28;20259;-82
2021/09/30 11:36:51;;;;;;;1.60;0.50;;;15.90;99.90;;;;;;5033391;28;20179;-82
2021/09/30 11:39:18;;;;;;;1.10;0.60;;;15.90;99.90;;;;;;5022946;28;20197;-78
2021/09/30 11:41:48;;;;;;;2.33;0.83;;;16.00;99.90;;;;;;5021107;28;20219;-81
2021/09/30 11:44:18;;;;;;;2.10;0.73;;;16.00;99.90;;;;;;5022667;28;20228;-80
2021/09/30 11:46:50;;;;;;;0.90;0.50;;;15.90;99.90;;;;;;5042031;28;20244;-81
2021/09/30 11:49:16;;;;;;;1.63;0.70;;;15.80;99.90;;;;;;5024920;28;20183;-80
2021/09/30 11:51:46;;;;;;;1.07;0.60;;;15.90;99.90;;;;;;5042368;28;20194;-81
2021/09/30 11:54:16;;;;;;;1.80;0.70;;;16.10;99.90;;;;;;5027894;28;20185;-83
2021/09/30 11:56:43;;;;;;;3.73;0.70;;;16.30;99.90;;;;;;5041241;28;20186;-81
2021/09/30 11:59:09;;;;;;;5.30;0.93;;;16.50;99.90;;;;;;5023590;28;20545;-81
2021/09/30 12:01:45;;;;;;;2.83;0.87;;;16.60;99.90;;;;;;5040737;28;20231;-81
2021/09/30 12:04:27;;;;;;;1.27;0.63;;;16.70;99.90;;;;;;5022139;28;20216;-81
2021/09/30 12:06:53;;;;;;;0.97;0.60;;;16.80;99.90;;;;;;5040622;28;20653;-81
2021/09/30 12:09:20;;;;;;;2.83;0.60;;;17.00;99.90;;;;;;5040158;28;20174;-82
2021/09/30 12:11:51;;;;;;;3.27;0.87;;;17.10;99.90;;;;;;5040530;28;20553;-82
2021/09/30 12:14:20;;;;;;;3.47;0.80;;;17.20;99.90;;;;;;5040623;28;20167;-79
2021/09/30 12:16:57;;;;;;;2.60;0.60;;;17.20;99.90;;;;;;5040488;28;20188;-81
2021/09/30 12:19:36;;;;;;;1.67;0.60;;;17.00;99.90;;;;;;5040393;28;20194;-82
2021/09/30 12:22:26;;;;;;;2.13;0.77;;;17.00;99.90;;;;;;5022876;28;20201;-82
2021/09/30 12:24:56;;;;;;;1.60;0.53;;;16.90;99.90;;;;;;5039807;28;20233;-81
2021/09/30 12:27:24;;;;;;;1.80;0.73;;;16.80;99.90;;;;;;5039825;28;20636;-82
2021/09/30 12:29:52;;;;;;;1.43;0.67;;;16.60;99.90;;;;;;5040011;28;20661;-82
2021/09/30 12:32:23;;;;;;;1.97;0.67;;;16.60;99.90;;;;;;5040803;28;20252;-82
2021/09/30 12:34:58;;;;;;;1.03;0.43;;;16.50;99.90;;;;;;5040288;28;20195;-82
2021/09/30 12:37:32;;;;;;;1.33;0.67;;;16.40;99.90;;;;;;5040466;28;20548;-82
2021/09/30 12:40:06;;;;;;;2.43;1.00;;;16.50;99.90;;;;;;5040051;28;20205;-82
2021/09/30 12:42:34;;;;;;;1.67;1.30;;;16.60;99.90;;;;;;5040632;28;20281;-82
2021/09/30 12:44:59;;;;;;;0.97;0.53;;;16.50;99.90;;;;;;5022829;28;20171;-82
2021/09/30 12:47:35;;;;;;;2.07;0.70;;;16.60;99.90;;;;;;5040158;28;20189;-82
2021/09/30 12:50:05;;;;;;;1.13;0.50;;;16.70;99.90;;;;;;5040652;28;20181;-84
2021/09/30 12:52:31;;;;;;;2.13;0.70;;;16.70;99.90;;;;;;5038326;28;20211;-81
2021/09/30 12:54:56;;;;;;;1.60;0.90;;;16.70;99.90;;;;;;5039206;28;20267;-82
2021/09/30 12:57:31;;;;;;;2.77;0.87;;;16.70;99.90;;;;;;5038540;28;20186;-82
2021/09/30 13:00:09;;;;;;;2.67;1.07;;;16.70;99.90;;;;;;5038047;28;20196;-82
2021/09/30 13:02:34;;;;;;;1.47;0.70;;;16.60;99.90;;;;;;5038824;28;20251;-81
2021/09/30 13:05:00;;;;;;;4.10;0.80;;;16.70;99.90;;;;;;5037894;28;20180;-82
2021/09/30 13:07:52;;;;;;;1.17;0.80;;;16.80;99.90;;;;;;5038243;28;20181;-82
2021/09/30 13:10:20;;;;;;;2.57;0.93;;;16.80;99.90;;;;;;5044146;28;20206;-82
2021/09/30 13:13:05;;;;;;;1.03;0.60;;;16.80;99.90;;;;;;5026201;28;20182;-83
2021/09/30 13:15:45;;;;;;;1.10;0.50;;;16.80;99.90;;;;;;5042359;28;20180;-81
2021/09/30 13:18:15;;;;;;;5.10;0.77;;;16.70;99.90;;;;;;5042104;28;20176;-83
2021/09/30 13:21:03;;;;;;;1.80;0.63;;;16.60;99.90;;;;;;5044353;28;20234;-82
2021/09/30 13:23:29;;;;;;;1.10;0.70;;;16.60;99.90;;;;;;5044136;28;20180;-83
2021/09/30 13:25:55;;;;;;;2.90;0.83;;;16.50;99.90;;;;;;5046439;28;20202;-82
2021/09/30 13:28:21;;;;;;;1.30;0.53;;;16.50;99.90;;;;;;5042516;28;20189;-83
2021/09/30 13:30:47;;;;;;;1.70;0.70;;;16.50;99.90;;;;;;5038474;28;20198;-81
2021/09/30 13:33:14;;;;;;;1.60;0.80;;;16.60;99.90;;;;;;5039505;28;20185;-82
2021/09/30 13:35:40;;;;;;;1.83;0.60;;;16.60;99.90;;;;;;5034838;28;20553;-82
2021/09/30 13:38:06;;;;;;;1.80;1.00;;;16.60;99.90;;;;;;5027755;28;20177;-82
2021/09/30 13:40:33;;;;;;;1.63;0.70;;;16.60;99.90;;;;;;5047552;28;20270;-82
2021/09/30 13:43:01;;;;;;;2.13;0.67;;;16.50;99.90;;;;;;5047163;28;20189;-82
2021/09/30 13:45:26;;;;;;;1.93;0.70;;;16.50;99.90;;;;;;5046635;28;20289;-83
2021/09/30 13:48:01;;;;;;;1.63;0.80;;;16.50;99.90;;;;;;5030040;28;20188;-82
2021/09/30 13:50:28;;;;;;;2.67;0.80;;;16.40;99.90;;;;;;5029762;28;20184;-83
2021/09/30 13:52:54;;;;;;;2.40;0.80;;;16.40;99.90;;;;;;5047512;28;20171;-81
2021/09/30 13:55:22;;;;;;;1.43;0.63;;;16.40;99.90;;;;;;5030478;28;20203;-82
2021/09/30 13:57:48;;;;;;;4.27;0.77;;;16.30;99.90;;;;;;5048226;28;20238;-81
2021/09/30 14:00:16;;;;;;;2.10;0.60;;;16.40;99.90;;;;;;5046822;28;20192;-82
2021/09/30 14:02:44;;;;;;;3.70;0.93;;;16.40;99.90;;;;;;5087909;23;20313;-81
2021/09/30 14:05:12;;;;;;;2.77;0.90;;;16.40;99.90;;;;;;5084248;28;20196;-81
2021/09/30 14:07:41;;;;;;;2.40;1.10;;;16.40;99.90;;;;;;5082643;28;20185;-81
2021/09/30 14:10:09;;;;;;;2.20;1.17;;;16.30;99.90;;;;;;5084002;28;20213;-81
2021/09/30 14:12:35;;;;;;;2.60;0.50;;;16.30;99.90;;;;;;5084116;28;20262;-82
2021/09/30 14:15:02;;;;;;;2.87;0.90;;;16.30;99.90;;;;;;5084085;28;20184;-82
2021/09/30 14:17:27;;;;;;;1.03;0.70;;;16.40;99.90;;;;;;5083786;28;20687;-82
2021/09/30 14:19:53;;;;;;;2.33;0.50;;;16.30;99.90;;;;;;5083105;28;20229;-81
2021/09/30 14:22:19;;;;;;;3.43;0.57;;;16.30;99.90;;;;;;5082927;28;20192;-82
2021/09/30 14:24:44;;;;;;;0.90;0.60;;;16.30;99.90;;;;;;5082586;28;20177;-82
2021/09/30 14:27:10;;;;;;;1.83;0.47;;;16.30;99.90;;;;;;5083565;28;20166;-81
2021/09/30 14:29:41;;;;;;;1.70;0.60;;;16.30;99.90;;;;;;5083831;28;20204;-82
2021/09/30 14:32:09;;;;;;;1.23;0.60;;;16.30;99.90;;;;;;5084402;28;20200;-81
2021/09/30 14:34:34;;;;;;;0.97;0.63;;;16.20;99.90;;;;;;5082915;28;20173;-81
2021/09/30 14:37:00;;;;;;;1.57;0.47;;;16.20;99.90;;;;;;5081646;28;20185;-81
2021/09/30 14:39:26;;;;;;;1.70;1.00;;;16.20;99.90;;;;;;5082543;28;20552;-82
2021/09/30 14:41:54;;;;;;;1.27;0.50;;;16.20;99.90;;;;;;5084050;28;20275;-81
2021/09/30 14:44:23;;;;;;;3.13;0.63;;;16.20;99.90;;;;;;5082465;28;20238;-81
2021/09/30 14:46:50;;;;;;;4.50;0.97;;;16.20;99.90;;;;;;5083430;28;20169;-81
2021/09/30 14:49:15;;;;;;;1.33;0.50;;;16.40;99.90;;;;;;5081451;28;20186;-81
2021/09/30 14:51:41;;;;;;;1.47;0.47;;;16.50;99.90;;;;;;5081930;28;20196;-82
2021/09/30 14:54:06;;;;;;;1.40;0.70;;;16.80;99.90;;;;;;5081616;28;20180;-82
2021/09/30 14:56:32;;;;;;;1.37;0.60;;;16.80;99.90;;;;;;5083144;28;20187;-81
2021/09/30 14:58:58;;;;;;;1.60;0.70;;;16.70;99.90;;;;;;5082180;28;20175;-83
2021/09/30 15:01:23;;;;;;;2.43;0.70;;;16.70;99.90;;;;;;5083209;28;20620;-82
2021/09/30 15:03:50;;;;;;;1.53;0.60;;;16.70;99.90;;;;;;5083242;28;20173;-82
2021/09/30 15:06:16;;;;;;;3.07;0.70;;;16.70;99.90;;;;;;5081994;28;20705;-82
2021/09/30 15:08:42;;;;;;;1.53;0.70;;;16.80;99.90;;;;;;5082063;28;20205;-82
2021/09/30 15:11:08;;;;;;;3.03;0.97;;;16.80;99.90;;;;;;5082972;28;20182;-82
2021/09/30 15:13:34;;;;;;;1.17;0.70;;;16.80;99.90;;;;;;5078296;28;20185;-79
2021/09/30 15:16:02;;;;;;;0.93;0.50;;;16.80;99.90;;;;;;5075835;28;20182;-77
2021/09/30 15:18:49;;;;;;;2.63;0.60;;;16.80;99.90;;;;;;5064159;28;20180;-78
2021/09/30 15:21:23;;;;;;;1.70;0.63;;;16.70;99.90;;;;;;5058140;28;20273;-78
2021/09/30 15:23:56;;;;;;;1.37;0.33;;;16.90;99.90;;;;;;5071386;28;20218;-78
2021/09/30 15:26:23;;;;;;;1.57;0.60;;;16.90;99.90;;;;;;5061092;28;20179;-78
2021/09/30 15:28:50;;;;;;;1.73;0.57;;;16.90;99.90;;;;;;5066345;28;20188;-78
2021/09/30 15:31:18;;;;;;;2.60;0.53;;;16.70;99.90;;;;;;5075571;28;20172;-78
2021/09/30 15:33:48;;;;;;;5.60;0.97;;;16.60;99.90;;;;;;5073114;28;20270;-78
2021/09/30 15:36:14;;;;;;;1.83;0.77;;;16.50;99.90;;;;;;5068440;28;20268;-79
2021/09/30 15:38:41;;;;;;;1.43;0.90;;;16.50;99.90;;;;;;5067564;28;20181;-80
2021/09/30 15:41:08;;;;;;;4.50;0.80;;;16.50;99.90;;;;;;5072067;28;20203;-78
2021/09/30 15:43:34;;;;;;;2.13;0.90;;;16.50;99.90;;;;;;5072391;28;20261;-79
2021/09/30 15:46:02;;;;;;;1.63;0.63;;;16.50;99.90;;;;;;5073120;28;20211;-78
2021/09/30 15:48:28;;;;;;;1.50;0.90;;;16.30;99.90;;;;;;5073461;28;20187;-79
2021/09/30 15:50:55;;;;;;;2.33;0.77;;;16.30;99.90;;;;;;5073958;28;20571;-80
2021/09/30 15:53:20;;;;;;;1.13;0.50;;;16.30;99.90;;;;;;5073579;28;20702;-78